Terminal Aerodrome Forecast
Issued by NWS

Home | Current Version | Previous Version | Text Only | Print | Product List | Glossary On
Versions: 1 2 3 4 5 6 7 8 9 10 11 12 13 14 15 16 17 18 19 20 21 22 23 24 25 26 27 28 29 30
874
FTUS41 KBUF 241331 AAA
TAFIAG
TAF AMD
KIAG 241331Z 2414/2512 03008KT 1 1/2SM -SN OVC007
     FM241600 36008KT 4SM -SN OVC003
     FM242000 32007KT 6SM -SN OVC012
     FM250000 29008KT P6SM BKN012
     FM250900 26007KT P6SM BKN070=

USA.gov is the U.S. government's official web portal to all federal, state and local government web resources and services.